sensor_id;sensor_type;location;lat;lon;timestamp;pressure;altitude;pressure_sealevel;temperature;humidity
3844;BME280;1937;51.444;6.484;2023-03-11T00:00:48;67305.72;;;1.74;98.76
3844;BME280;1937;51.444;6.484;2023-03-11T00:03:17;67265.94;;;1.66;98.54
3844;BME280;1937;51.444;6.484;2023-03-11T00:05:47;67198.50;;;1.56;98.39
3844;BME280;1937;51.444;6.484;2023-03-11T00:08:19;67238.50;;;1.55;98.36
3844;BME280;1937;51.444;6.484;2023-03-11T00:10:50;67252.09;;;1.65;98.29
3844;BME280;1937;51.444;6.484;2023-03-11T00:13:19;67298.72;;;1.75;98.49
3844;BME280;1937;51.444;6.484;2023-03-11T00:15:52;67259.81;;;1.83;98.37
3844;BME280;1937;51.444;6.484;2023-03-11T00:18:23;67269.78;;;1.85;97.80
3844;BME280;1937;51.444;6.484;2023-03-11T00:20:53;67303.31;;;1.92;97.65
3844;BME280;1937;51.444;6.484;2023-03-11T00:23:24;67259.97;;;1.94;98.05
3844;BME280;1937;51.444;6.484;2023-03-11T00:25:54;67274.06;;;1.86;97.65
3844;BME280;1937;51.444;6.484;2023-03-11T00:28:22;67315.97;;;2.05;98.11
3844;BME280;1937;51.444;6.484;2023-03-11T00:30:52;67274.75;;;2.04;97.73
3844;BME280;1937;51.444;6.484;2023-03-11T00:33:21;67349.66;;;2.23;96.71
3844;BME280;1937;51.444;6.484;2023-03-11T00:35:51;67294.00;;;2.21;96.12
3844;BME280;1937;51.444;6.484;2023-03-11T00:38:19;67279.22;;;2.11;96.04
3844;BME280;1937;51.444;6.484;2023-03-11T00:40:50;67287.78;;;2.14;96.64
3844;BME280;1937;51.444;6.484;2023-03-11T00:43:19;67271.94;;;2.20;96.49
3844;BME280;1937;51.444;6.484;2023-03-11T00:45:47;67261.03;;;2.15;96.17
3844;BME280;1937;51.444;6.484;2023-03-11T00:48:16;67321.91;;;2.28;95.87
3844;BME280;1937;51.444;6.484;2023-03-11T00:50:44;67218.84;;;2.18;95.68
3844;BME280;1937;51.444;6.484;2023-03-11T00:53:13;67226.34;;;2.31;94.58
3844;BME280;1937;51.444;6.484;2023-03-11T00:55:42;67191.13;;;2.16;94.50
3844;BME280;1937;51.444;6.484;2023-03-11T00:58:12;67204.59;;;2.14;94.99
3844;BME280;1937;51.444;6.484;2023-03-11T01:00:41;67179.47;;;2.05;95.04
3844;BME280;1937;51.444;6.484;2023-03-11T01:03:10;67207.19;;;2.08;95.37
3844;BME280;1937;51.444;6.484;2023-03-11T01:05:38;67190.25;;;1.99;96.34
3844;BME280;1937;51.444;6.484;2023-03-11T01:08:06;67221.47;;;2.04;95.74
3844;BME280;1937;51.444;6.484;2023-03-11T01:10:35;67212.34;;;1.94;97.04
3844;BME280;1937;51.444;6.484;2023-03-11T01:13:05;67183.16;;;1.82;97.70
3844;BME280;1937;51.444;6.484;2023-03-11T01:15:36;67166.81;;;1.68;98.27
3844;BME280;1937;51.444;6.484;2023-03-11T01:18:05;67183.38;;;1.74;97.57
3844;BME280;1937;51.444;6.484;2023-03-11T01:20:34;67233.53;;;1.73;98.39
3844;BME280;1937;51.444;6.484;2023-03-11T01:23:03;67173.91;;;1.54;98.71
3844;BME280;1937;51.444;6.484;2023-03-11T01:25:33;67166.56;;;1.46;99.03
3844;BME280;1937;51.444;6.484;2023-03-11T01:28:02;67171.84;;;1.44;99.62
3844;BME280;1937;51.444;6.484;2023-03-11T01:30:31;67180.03;;;1.44;99.33
3844;BME280;1937;51.444;6.484;2023-03-11T01:33:00;67147.84;;;1.43;98.75
3844;BME280;1937;51.444;6.484;2023-03-11T01:35:31;67142.06;;;1.31;99.54
3844;BME280;1937;51.444;6.484;2023-03-11T01:38:00;67155.91;;;1.32;99.03
3844;BME280;1937;51.444;6.484;2023-03-11T01:40:31;67141.16;;;1.21;99.48
3844;BME280;1937;51.444;6.484;2023-03-11T01:43:01;67177.84;;;1.16;100.00
3844;BME280;1937;51.444;6.484;2023-03-11T01:45:38;67125.56;;;1.19;99.33
3844;BME280;1937;51.444;6.484;2023-03-11T01:48:09;67136.09;;;1.15;99.32
3844;BME280;1937;51.444;6.484;2023-03-11T01:50:42;67134.72;;;1.22;98.59
3844;BME280;1937;51.444;6.484;2023-03-11T01:53:11;67144.59;;;1.31;97.18
3844;BME280;1937;51.444;6.484;2023-03-11T01:55:41;67093.69;;;1.02;97.46
3844;BME280;1937;51.444;6.484;2023-03-11T01:58:13;67098.72;;;1.09;97.79
3844;BME280;1937;51.444;6.484;2023-03-11T02:00:44;67043.59;;;1.03;96.87
3844;BME280;1937;51.444;6.484;2023-03-11T02:03:17;67104.91;;;1.16;97.07
3844;BME280;1937;51.444;6.484;2023-03-11T02:05:49;67086.81;;;1.07;96.01
3844;BME280;1937;51.444;6.484;2023-03-11T02:08:18;67017.78;;;1.13;95.18
3844;BME280;1937;51.444;6.484;2023-03-11T02:10:47;67031.94;;;0.99;95.50
3844;BME280;1937;51.444;6.484;2023-03-11T02:13:17;67005.03;;;0.96;95.55
3844;BME280;1937;51.444;6.484;2023-03-11T02:15:46;66999.78;;;0.98;95.16
3844;BME280;1937;51.444;6.484;2023-03-11T02:18:16;66967.84;;;0.94;95.06
3844;BME280;1937;51.444;6.484;2023-03-11T02:20:51;66997.66;;;0.94;94.99
3844;BME280;1937;51.444;6.484;2023-03-11T02:23:25;66949.31;;;0.96;95.01
3844;BME280;1937;51.444;6.484;2023-03-11T02:26:00;66982.81;;;0.96;94.85
3844;BME280;1937;51.444;6.484;2023-03-11T02:28:34;66972.38;;;0.87;94.72
3844;BME280;1937;51.444;6.484;2023-03-11T02:31:04;66911.03;;;0.80;94.41
3844;BME280;1937;51.444;6.484;2023-03-11T02:33:34;66951.63;;;0.98;93.17
3844;BME280;1937;51.444;6.484;2023-03-11T02:36:04;66923.81;;;0.91;92.77
3844;BME280;1937;51.444;6.484;2023-03-11T02:38:34;66936.91;;;0.87;92.68
3844;BME280;1937;51.444;6.484;2023-03-11T02:41:04;66900.47;;;0.84;92.46
3844;BME280;1937;51.444;6.484;2023-03-11T02:43:38;66895.53;;;0.71;92.33
3844;BME280;1937;51.444;6.484;2023-03-11T02:46:13;66903.44;;;0.80;92.82
3844;BME280;1937;51.444;6.484;2023-03-11T02:48:42;66866.25;;;0.78;92.13
3844;BME280;1937;51.444;6.484;2023-03-11T02:51:11;66894.88;;;0.77;93.01
3844;BME280;1937;51.444;6.484;2023-03-11T02:53:43;66838.13;;;0.63;91.89
3844;BME280;1937;51.444;6.484;2023-03-11T02:56:13;66838.34;;;0.61;91.55
3844;BME280;1937;51.444;6.484;2023-03-11T02:58:42;66846.47;;;0.68;91.85
3844;BME280;1937;51.444;6.484;2023-03-11T03:01:11;66846.53;;;0.61;92.18
3844;BME280;1937;51.444;6.484;2023-03-11T03:03:41;66835.28;;;0.54;92.57
3844;BME280;1937;51.444;6.484;2023-03-11T03:06:09;66823.91;;;0.41;93.29
3844;BME280;1937;51.444;6.484;2023-03-11T03:08:37;66834.03;;;0.41;94.29
3844;BME280;1937;51.444;6.484;2023-03-11T03:11:06;66832.44;;;0.45;94.75
3844;BME280;1937;51.444;6.484;2023-03-11T03:13:35;66895.22;;;0.62;93.95
3844;BME280;1937;51.444;6.484;2023-03-11T03:16:05;66864.56;;;0.46;94.47
3844;BME280;1937;51.444;6.484;2023-03-11T03:18:34;66865.16;;;0.47;94.77
3844;BME280;1937;51.444;6.484;2023-03-11T03:21:02;66855.13;;;0.33;94.94
3844;BME280;1937;51.444;6.484;2023-03-11T03:23:31;66809.72;;;0.38;95.35
3844;BME280;1937;51.444;6.484;2023-03-11T03:26:01;66845.53;;;0.40;95.67
3844;BME280;1937;51.444;6.484;2023-03-11T03:28:29;66869.53;;;0.35;95.81
3844;BME280;1937;51.444;6.484;2023-03-11T03:31:06;66880.69;;;0.25;96.23
3844;BME280;1937;51.444;6.484;2023-03-11T03:33:35;66862.56;;;0.29;96.13
3844;BME280;1937;51.444;6.484;2023-03-11T03:36:08;66852.31;;;0.18;96.67
3844;BME280;1937;51.444;6.484;2023-03-11T03:38:37;66845.47;;;0.23;96.09
3844;BME280;1937;51.444;6.484;2023-03-11T03:41:06;66852.84;;;0.25;95.60
3844;BME280;1937;51.444;6.484;2023-03-11T03:43:35;66805.78;;;0.21;95.69
3844;BME280;1937;51.444;6.484;2023-03-11T03:46:06;66859.03;;;0.32;96.08
3844;BME280;1937;51.444;6.484;2023-03-11T03:48:34;66834.81;;;0.16;96.26
3844;BME280;1937;51.444;6.484;2023-03-11T03:51:07;66829.97;;;0.14;96.33
3844;BME280;1937;51.444;6.484;2023-03-11T03:53:37;66825.69;;;0.12;96.06
3844;BME280;1937;51.444;6.484;2023-03-11T03:56:07;66789.22;;;0.22;95.73
3844;BME280;1937;51.444;6.484;2023-03-11T03:58:35;66833.03;;;0.21;95.49
3844;BME280;1937;51.444;6.484;2023-03-11T04:01:07;66857.53;;;0.22;95.47
3844;BME280;1937;51.444;6.484;2023-03-11T04:03:36;66849.38;;;0.22;95.14
3844;BME280;1937;51.444;6.484;2023-03-11T04:06:09;66841.00;;;0.23;94.78
3844;BME280;1937;51.444;6.484;2023-03-11T04:08:39;66828.59;;;0.15;95.11
3844;BME280;1937;51.444;6.484;2023-03-11T04:11:08;66786.38;;;0.13;95.32
3844;BME280;1937;51.444;6.484;2023-03-11T04:13:36;66811.28;;;0.17;95.76
3844;BME280;1937;51.444;6.484;2023-03-11T04:16:06;66798.50;;;0.06;96.12
3844;BME280;1937;51.444;6.484;2023-03-11T04:18:35;66845.38;;;0.12;96.24
3844;BME280;1937;51.444;6.484;2023-03-11T04:21:06;66803.03;;;-0.01;96.74
3844;BME280;1937;51.444;6.484;2023-03-11T04:23:34;66855.09;;;0.09;96.79
3844;BME280;1937;51.444;6.484;2023-03-11T04:26:03;66836.81;;;0.09;96.53
3844;BME280;1937;51.444;6.484;2023-03-11T04:28:31;66854.56;;;0.02;96.59
3844;BME280;1937;51.444;6.484;2023-03-11T04:31:00;66824.31;;;0.13;96.76
3844;BME280;1937;51.444;6.484;2023-03-11T04:33:30;66835.44;;;0.10;96.79
3844;BME280;1937;51.444;6.484;2023-03-11T04:36:03;66826.22;;;0.19;96.64
3844;BME280;1937;51.444;6.484;2023-03-11T04:38:31;66863.47;;;0.08;97.04
3844;BME280;1937;51.444;6.484;2023-03-11T04:41:01;66861.28;;;0.17;97.02
3844;BME280;1937;51.444;6.484;2023-03-11T04:43:29;66860.88;;;0.21;96.82
3844;BME280;1937;51.444;6.484;2023-03-11T04:45:57;66862.97;;;0.25;96.97
3844;BME280;1937;51.444;6.484;2023-03-11T04:48:27;66884.50;;;0.37;96.47
3844;BME280;1937;51.444;6.484;2023-03-11T04:50:56;66885.59;;;0.45;96.11
3844;BME280;1937;51.444;6.484;2023-03-11T04:53:25;66913.44;;;0.45;96.09
3844;BME280;1937;51.444;6.484;2023-03-11T04:55:53;66867.72;;;0.40;95.35
3844;BME280;1937;51.444;6.484;2023-03-11T04:58:21;66887.31;;;0.53;95.65
3844;BME280;1937;51.444;6.484;2023-03-11T05:00:50;66882.50;;;0.44;95.31
3844;BME280;1937;51.444;6.484;2023-03-11T05:03:18;66821.13;;;0.26;95.07
3844;BME280;1937;51.444;6.484;2023-03-11T05:05:47;66870.91;;;0.34;95.79
3844;BME280;1937;51.444;6.484;2023-03-11T05:08:17;66857.13;;;0.26;95.78
3844;BME280;1937;51.444;6.484;2023-03-11T05:10:46;66855.06;;;0.40;95.98
3844;BME280;1937;51.444;6.484;2023-03-11T05:13:14;66895.53;;;0.47;95.86
3844;BME280;1937;51.444;6.484;2023-03-11T05:15:43;66867.56;;;0.35;96.11
3844;BME280;1937;51.444;6.484;2023-03-11T05:18:12;66885.44;;;0.40;96.00
3844;BME280;1937;51.444;6.484;2023-03-11T05:20:41;66890.28;;;0.42;95.91
3844;BME280;1937;51.444;6.484;2023-03-11T05:23:10;66867.84;;;0.51;95.49
3844;BME280;1937;51.444;6.484;2023-03-11T05:25:39;66844.94;;;0.40;95.39
3844;BME280;1937;51.444;6.484;2023-03-11T05:28:07;66879.19;;;0.46;95.46
3844;BME280;1937;51.444;6.484;2023-03-11T05:30:36;66905.66;;;0.71;94.73
3844;BME280;1937;51.444;6.484;2023-03-11T05:33:04;66844.94;;;0.40;94.83
3844;BME280;1937;51.444;6.484;2023-03-11T05:35:32;66844.56;;;0.37;95.28
3844;BME280;1937;51.444;6.484;2023-03-11T05:38:01;66853.13;;;0.40;95.19
3844;BME280;1937;51.444;6.484;2023-03-11T05:40:30;66798.28;;;0.32;95.27
3844;BME280;1937;51.444;6.484;2023-03-11T05:43:01;66856.59;;;0.44;95.49
3844;BME280;1937;51.444;6.484;2023-03-11T05:45:31;66833.13;;;0.32;95.17
3844;BME280;1937;51.444;6.484;2023-03-11T05:48:00;66831.03;;;0.28;95.70
3844;BME280;1937;51.444;6.484;2023-03-11T05:50:28;66839.31;;;0.39;95.59
3844;BME280;1937;51.444;6.484;2023-03-11T05:52:57;66860.63;;;0.29;95.05
3844;BME280;1937;51.444;6.484;2023-03-11T05:55:25;66875.63;;;0.49;94.25
3844;BME280;1937;51.444;6.484;2023-03-11T05:57:53;66863.59;;;0.43;94.22
3844;BME280;1937;51.444;6.484;2023-03-11T06:00:23;66828.56;;;0.46;94.00
3844;BME280;1937;51.444;6.484;2023-03-11T06:02:56;66806.09;;;0.30;93.82
3844;BME280;1937;51.444;6.484;2023-03-11T06:05:24;66790.44;;;0.41;94.00
3844;BME280;1937;51.444;6.484;2023-03-11T06:07:52;66792.59;;;0.14;94.06
3844;BME280;1937;51.444;6.484;2023-03-11T06:10:20;66790.50;;;0.10;94.77
3844;BME280;1937;51.444;6.484;2023-03-11T06:12:49;66749.06;;;0.07;95.10
3844;BME280;1937;51.444;6.484;2023-03-11T06:15:17;66777.41;;;0.14;95.28
3844;BME280;1937;51.444;6.484;2023-03-11T06:17:47;66830.50;;;0.21;94.71
3844;BME280;1937;51.444;6.484;2023-03-11T06:20:16;66795.56;;;0.10;94.84
3844;BME280;1937;51.444;6.484;2023-03-11T06:22:46;66754.44;;;0.16;94.79
3844;BME280;1937;51.444;6.484;2023-03-11T06:25:15;66823.13;;;0.19;94.85
3844;BME280;1937;51.444;6.484;2023-03-11T06:27:44;66765.69;;;-0.01;94.86
3844;BME280;1937;51.444;6.484;2023-03-11T06:30:16;66797.50;;;0.10;95.38
3844;BME280;1937;51.444;6.484;2023-03-11T06:32:45;66785.38;;;0.17;95.09
3844;BME280;1937;51.444;6.484;2023-03-11T06:35:14;66778.06;;;0.08;95.65
3844;BME280;1937;51.444;6.484;2023-03-11T06:37:42;66789.00;;;0.24;95.19
3844;BME280;1937;51.444;6.484;2023-03-11T06:40:12;66773.69;;;-0.05;95.82
3844;BME280;1937;51.444;6.484;2023-03-11T06:42:41;66760.44;;;-0.05;96.33
3844;BME280;1937;51.444;6.484;2023-03-11T06:45:10;66793.81;;;0.09;96.54
3844;BME280;1937;51.444;6.484;2023-03-11T06:47:38;66823.75;;;0.13;96.46
3844;BME280;1937;51.444;6.484;2023-03-11T06:50:10;66822.38;;;0.14;96.45
3844;BME280;1937;51.444;6.484;2023-03-11T06:52:38;66869.41;;;0.24;96.38
3844;BME280;1937;51.444;6.484;2023-03-11T06:55:08;66824.84;;;0.20;95.71
3844;BME280;1937;51.444;6.484;2023-03-11T06:57:37;66855.16;;;0.27;95.81
3844;BME280;1937;51.444;6.484;2023-03-11T07:00:07;66869.69;;;0.39;95.38
3844;BME280;1937;51.444;6.484;2023-03-11T07:02:38;66852.22;;;0.31;95.03
3844;BME280;1937;51.444;6.484;2023-03-11T07:05:07;66837.03;;;0.31;95.13
3844;BME280;1937;51.444;6.484;2023-03-11T07:07:35;66822.66;;;0.29;94.45
3844;BME280;1937;51.444;6.484;2023-03-11T07:10:05;66837.72;;;0.43;94.34
3844;BME280;1937;51.444;6.484;2023-03-11T07:12:33;66835.63;;;0.38;94.55
3844;BME280;1937;51.444;6.484;2023-03-11T07:15:02;66830.13;;;0.43;94.36
3844;BME280;1937;51.444;6.484;2023-03-11T07:17:30;66847.31;;;0.60;93.13
3844;BME280;1937;51.444;6.484;2023-03-11T07:19:59;66841.03;;;0.65;93.67
3844;BME280;1937;51.444;6.484;2023-03-11T07:22:30;66894.59;;;0.68;93.83
3844;BME280;1937;51.444;6.484;2023-03-11T07:24:59;66851.31;;;0.70;93.41
3844;BME280;1937;51.444;6.484;2023-03-11T07:27:28;66896.47;;;0.74;93.49
3844;BME280;1937;51.444;6.484;2023-03-11T07:29:56;66897.84;;;0.97;92.90
3844;BME280;1937;51.444;6.484;2023-03-11T07:32:24;66873.03;;;1.04;91.75
3844;BME280;1937;51.444;6.484;2023-03-11T07:34:54;66865.63;;;1.02;91.54
3844;BME280;1937;51.444;6.484;2023-03-11T07:37:22;66887.72;;;0.97;91.49
3844;BME280;1937;51.444;6.484;2023-03-11T07:39:51;66858.63;;;1.03;91.76
3844;BME280;1937;51.444;6.484;2023-03-11T07:42:20;66873.28;;;1.20;90.58
3844;BME280;1937;51.444;6.484;2023-03-11T07:44:50;66865.59;;;1.09;90.89
3844;BME280;1937;51.444;6.484;2023-03-11T07:47:19;66904.16;;;1.34;90.79
3844;BME280;1937;51.444;6.484;2023-03-11T07:49:48;66900.66;;;1.31;90.31
3844;BME280;1937;51.444;6.484;2023-03-11T07:52:16;66902.56;;;1.37;90.41
3844;BME280;1937;51.444;6.484;2023-03-11T07:54:46;66908.94;;;1.42;90.63
3844;BME280;1937;51.444;6.484;2023-03-11T07:57:15;66910.25;;;1.65;90.03
3844;BME280;1937;51.444;6.484;2023-03-11T07:59:43;66936.78;;;1.67;89.22
3844;BME280;1937;51.444;6.484;2023-03-11T08:02:12;66925.34;;;1.79;88.94
3844;BME280;1937;51.444;6.484;2023-03-11T08:04:40;66943.50;;;1.81;89.25
3844;BME280;1937;51.444;6.484;2023-03-11T08:07:09;66947.53;;;1.85;87.97
3844;BME280;1937;51.444;6.484;2023-03-11T08:09:38;66955.25;;;2.14;87.26
3844;BME280;1937;51.444;6.484;2023-03-11T08:12:07;66940.16;;;2.18;85.62
3844;BME280;1937;51.444;6.484;2023-03-11T08:14:37;66947.13;;;2.42;85.21
3844;BME280;1937;51.444;6.484;2023-03-11T08:17:06;67017.50;;;2.90;84.19
3844;BME280;1937;51.444;6.484;2023-03-11T08:19:34;67108.16;;;3.51;82.30
3844;BME280;1937;51.444;6.484;2023-03-11T08:22:03;67131.66;;;3.98;78.93
3844;BME280;1937;51.444;6.484;2023-03-11T08:24:34;67129.97;;;4.37;77.31
3844;BME280;1937;51.444;6.484;2023-03-11T08:27:02;67055.88;;;4.39;73.89
3844;BME280;1937;51.444;6.484;2023-03-11T08:29:33;67096.28;;;4.76;72.99
3844;BME280;1937;51.444;6.484;2023-03-11T08:32:03;67142.84;;;5.10;73.73
3844;BME280;1937;51.444;6.484;2023-03-11T08:34:31;67146.94;;;5.36;72.29
3844;BME280;1937;51.444;6.484;2023-03-11T08:37:02;67174.25;;;5.60;71.14
3844;BME280;1937;51.444;6.484;2023-03-11T08:39:31;67088.38;;;5.29;69.55
3844;BME280;1937;51.444;6.484;2023-03-11T08:41:59;67164.75;;;5.65;70.73
3844;BME280;1937;51.444;6.484;2023-03-11T08:44:28;67214.16;;;6.19;69.28
3844;BME280;1937;51.444;6.484;2023-03-11T08:46:57;67238.22;;;6.49;66.86
3844;BME280;1937;51.444;6.484;2023-03-11T08:49:27;67241.25;;;6.67;66.96
3844;BME280;1937;51.444;6.484;2023-03-11T08:51:56;67216.50;;;6.77;66.54
3844;BME280;1937;51.444;6.484;2023-03-11T08:54:24;67227.50;;;6.97;64.63
3844;BME280;1937;51.444;6.484;2023-03-11T08:56:52;67183.44;;;6.97;65.31
3844;BME280;1937;51.444;6.484;2023-03-11T08:59:21;67158.53;;;7.02;61.93
3844;BME280;1937;51.444;6.484;2023-03-11T09:01:49;67228.50;;;7.27;64.59
3844;BME280;1937;51.444;6.484;2023-03-11T09:04:17;67176.84;;;7.31;61.67
3844;BME280;1937;51.444;6.484;2023-03-11T09:06:47;67118.94;;;7.23;59.47
3844;BME280;1937;51.444;6.484;2023-03-11T09:09:16;67160.53;;;7.39;59.67
3844;BME280;1937;51.444;6.484;2023-03-11T09:11:47;67144.72;;;7.32;56.98
3844;BME280;1937;51.444;6.484;2023-03-11T09:14:16;67089.69;;;7.27;57.37
3844;BME280;1937;51.444;6.484;2023-03-11T09:16:45;67113.59;;;7.14;59.72
3844;BME280;1937;51.444;6.484;2023-03-11T09:19:13;67063.44;;;7.22;57.69
3844;BME280;1937;51.444;6.484;2023-03-11T09:21:41;67137.97;;;7.35;60.06
3844;BME280;1937;51.444;6.484;2023-03-11T09:24:11;67094.34;;;7.31;57.41
3844;BME280;1937;51.444;6.484;2023-03-11T09:26:39;67174.06;;;7.60;58.69
3844;BME280;1937;51.444;6.484;2023-03-11T09:29:08;67200.34;;;8.03;58.96
3844;BME280;1937;51.444;6.484;2023-03-11T09:31:36;67235.78;;;8.23;58.26
3844;BME280;1937;51.444;6.484;2023-03-11T09:34:06;67316.16;;;8.37;60.77
3844;BME280;1937;51.444;6.484;2023-03-11T09:36:34;67125.00;;;7.96;50.74
3844;BME280;1937;51.444;6.484;2023-03-11T09:39:02;67123.50;;;7.92;52.49
3844;BME280;1937;51.444;6.484;2023-03-11T09:41:37;67105.72;;;7.86;50.85
3844;BME280;1937;51.444;6.484;2023-03-11T09:44:15;67152.13;;;7.99;56.64
3844;BME280;1937;51.444;6.484;2023-03-11T09:46:58;67195.84;;;8.46;52.10
3844;BME280;1937;51.444;6.484;2023-03-11T09:49:36;67057.84;;;7.68;49.38
3844;BME280;1937;51.444;6.484;2023-03-11T09:52:11;67030.97;;;7.63;50.42
3844;BME280;1937;51.444;6.484;2023-03-11T09:54:43;67045.97;;;7.71;52.69
3844;BME280;1937;51.444;6.484;2023-03-11T09:57:18;66899.03;;;6.90;50.58
3844;BME280;1937;51.444;6.484;2023-03-11T09:59:49;66946.56;;;6.93;51.55
3844;BME280;1937;51.444;6.484;2023-03-11T10:02:19;66994.09;;;7.24;52.59
3844;BME280;1937;51.444;6.484;2023-03-11T10:04:53;66973.97;;;7.58;50.95
3844;BME280;1937;51.444;6.484;2023-03-11T10:07:26;66959.59;;;7.34;49.29
3844;BME280;1937;51.444;6.484;2023-03-11T10:09:58;67062.44;;;8.15;53.23
3844;BME280;1937;51.444;6.484;2023-03-11T10:12:42;67181.25;;;8.72;50.33
3844;BME280;1937;51.444;6.484;2023-03-11T10:15:18;67181.81;;;9.03;49.86
3844;BME280;1937;51.444;6.484;2023-03-11T10:17:58;67120.22;;;8.72;50.00
3844;BME280;1937;51.444;6.484;2023-03-11T10:20:33;67087.75;;;8.12;51.60
3844;BME280;1937;51.444;6.484;2023-03-11T10:23:10;66998.44;;;7.72;48.58
3844;BME280;1937;51.444;6.484;2023-03-11T10:25:52;67047.28;;;7.81;53.66
3844;BME280;1937;51.444;6.484;2023-03-11T10:28:29;67078.72;;;8.02;50.83
3844;BME280;1937;51.444;6.484;2023-03-11T10:31:05;67099.41;;;8.27;51.45
3844;BME280;1937;51.444;6.484;2023-03-11T10:33:38;67043.72;;;7.90;52.19
3844;BME280;1937;51.444;6.484;2023-03-11T10:36:14;67073.50;;;8.13;52.56
3844;BME280;1937;51.444;6.484;2023-03-11T10:38:51;67028.34;;;7.90;52.94
3844;BME280;1937;51.444;6.484;2023-03-11T10:41:22;67098.69;;;8.33;49.97
3844;BME280;1937;51.444;6.484;2023-03-11T10:44:00;67047.06;;;8.15;50.42
3844;BME280;1937;51.444;6.484;2023-03-11T10:46:31;67040.44;;;7.96;48.67
3844;BME280;1937;51.444;6.484;2023-03-11T10:48:59;67086.78;;;8.52;46.75
3844;BME280;1937;51.444;6.484;2023-03-11T10:51:30;67104.59;;;8.58;46.38
3844;BME280;1937;51.444;6.484;2023-03-11T10:54:00;66962.09;;;7.76;49.00
3844;BME280;1937;51.444;6.484;2023-03-11T10:56:31;66925.38;;;7.31;48.86
3844;BME280;1937;51.444;6.484;2023-03-11T10:59:03;66967.69;;;7.72;48.50
3844;BME280;1937;51.444;6.484;2023-03-11T11:01:33;67032.19;;;8.11;48.03
3844;BME280;1937;51.444;6.484;2023-03-11T11:04:02;67042.34;;;8.22;47.93
3844;BME280;1937;51.444;6.484;2023-03-11T11:06:31;66991.59;;;7.87;46.22
3844;BME280;1937;51.444;6.484;2023-03-11T11:09:20;66947.63;;;7.64;49.34
3844;BME280;1937;51.444;6.484;2023-03-11T11:12:03;66997.38;;;8.23;49.01
3844;BME280;1937;51.444;6.484;2023-03-11T11:14:47;66961.16;;;7.58;48.07
3844;BME280;1937;51.444;6.484;2023-03-11T11:17:22;66922.41;;;7.55;48.16
3844;BME280;1937;51.444;6.484;2023-03-11T11:19:54;66874.34;;;7.09;50.43
3844;BME280;1937;51.444;6.484;2023-03-11T11:22:24;66980.41;;;7.83;53.05
3844;BME280;1937;51.444;6.484;2023-03-11T11:24:55;66990.25;;;7.76;50.88
3844;BME280;1937;51.444;6.484;2023-03-11T11:27:26;67032.75;;;8.27;48.67
3844;BME280;1937;51.444;6.484;2023-03-11T11:30:16;67073.72;;;8.54;47.70
3844;BME280;1937;51.444;6.484;2023-03-11T11:32:44;67056.03;;;8.36;47.74
3844;BME280;1937;51.444;6.484;2023-03-11T11:35:13;67107.31;;;8.68;48.48
3844;BME280;1937;51.444;6.484;2023-03-11T11:37:45;67042.63;;;8.36;48.42
3844;BME280;1937;51.444;6.484;2023-03-11T11:40:24;67053.13;;;8.49;47.53
3844;BME280;1937;51.444;6.484;2023-03-11T11:42:55;67101.59;;;8.98;47.53
3844;BME280;1937;51.444;6.484;2023-03-11T11:45:28;67106.31;;;9.07;43.89
3844;BME280;1937;51.444;6.484;2023-03-11T11:48:02;67069.56;;;8.61;45.60
3844;BME280;1937;51.444;6.484;2023-03-11T11:50:34;67017.69;;;8.14;49.65
3844;BME280;1937;51.444;6.484;2023-03-11T11:53:10;67124.53;;;8.74;48.48
3844;BME280;1937;51.444;6.484;2023-03-11T11:55:43;67072.97;;;8.60;50.08
3844;BME280;1937;51.444;6.484;2023-03-11T11:58:14;67054.50;;;8.48;47.62
3844;BME280;1937;51.444;6.484;2023-03-11T12:00:53;67008.94;;;8.17;49.52
3844;BME280;1937;51.444;6.484;2023-03-11T12:03:38;67100.50;;;9.02;49.88
3844;BME280;1937;51.444;6.484;2023-03-11T12:06:19;67225.56;;;9.71;48.29
3844;BME280;1937;51.444;6.484;2023-03-11T12:08:55;67216.94;;;9.68;46.54
3844;BME280;1937;51.444;6.484;2023-03-11T12:11:35;67042.59;;;8.67;45.24
3844;BME280;1937;51.444;6.484;2023-03-11T12:14:06;66945.47;;;7.87;48.86
3844;BME280;1937;51.444;6.484;2023-03-11T12:16:44;66950.34;;;7.89;49.05
3844;BME280;1937;51.444;6.484;2023-03-11T12:19:22;66927.28;;;7.89;48.87
3844;BME280;1937;51.444;6.484;2023-03-11T12:22:07;66803.22;;;6.89;48.61
3844;BME280;1937;51.444;6.484;2023-03-11T12:24:50;66862.38;;;7.38;47.57
3844;BME280;1937;51.444;6.484;2023-03-11T12:27:25;66939.03;;;7.76;47.00
3844;BME280;1937;51.444;6.484;2023-03-11T12:29:56;66959.94;;;7.99;47.48
3844;BME280;1937;51.444;6.484;2023-03-11T12:32:32;67056.56;;;8.68;47.16
3844;BME280;1937;51.444;6.484;2023-03-11T12:35:03;67139.13;;;9.42;46.50
3844;BME280;1937;51.444;6.484;2023-03-11T12:37:36;67177.91;;;9.56;46.22
3844;BME280;1937;51.444;6.484;2023-03-11T12:43:07;67141.22;;;9.15;48.21
3844;BME280;1937;51.444;6.484;2023-03-11T12:45:50;67068.19;;;9.14;46.06
3844;BME280;1937;51.444;6.484;2023-03-11T12:48:31;67057.31;;;8.93;45.60
3844;BME280;1937;51.444;6.484;2023-03-11T12:51:00;67140.69;;;9.51;47.08
3844;BME280;1937;51.444;6.484;2023-03-11T12:53:46;67158.91;;;9.49;46.45
3844;BME280;1937;51.444;6.484;2023-03-11T12:56:22;66998.66;;;8.49;47.46
3844;BME280;1937;51.444;6.484;2023-03-11T12:59:06;66962.22;;;8.17;48.46
3844;BME280;1937;51.444;6.484;2023-03-11T13:01:46;67030.19;;;8.58;47.55
3844;BME280;1937;51.444;6.484;2023-03-11T13:04:25;67110.69;;;8.97;48.09
3844;BME280;1937;51.444;6.484;2023-03-11T13:10:14;66932.75;;;7.75;50.56
3844;BME280;1937;51.444;6.484;2023-03-11T13:12:45;66993.81;;;8.15;51.35
3844;BME280;1937;51.444;6.484;2023-03-11T13:15:31;66986.28;;;8.25;49.03
3844;BME280;1937;51.444;6.484;2023-03-11T13:18:02;67030.69;;;8.23;49.67
3844;BME280;1937;51.444;6.484;2023-03-11T13:20:53;66995.13;;;8.26;49.86
3844;BME280;1937;51.444;6.484;2023-03-11T13:23:38;67031.03;;;8.57;47.27
3844;BME280;1937;51.444;6.484;2023-03-11T13:26:26;67010.84;;;8.28;49.38
3844;BME280;1937;51.444;6.484;2023-03-11T13:32:01;66874.28;;;7.04;51.52
3844;BME280;1937;51.444;6.484;2023-03-11T13:34:38;66883.28;;;7.46;51.74
3844;BME280;1937;51.444;6.484;2023-03-11T13:37:23;66955.31;;;7.79;52.00
3844;BME280;1937;51.444;6.484;2023-03-11T13:40:04;66928.53;;;7.78;50.97
3844;BME280;1937;51.444;6.484;2023-03-11T13:42:45;66856.19;;;7.26;51.94
3844;BME280;1937;51.444;6.484;2023-03-11T13:45:23;66949.25;;;7.61;51.90
3844;BME280;1937;51.444;6.484;2023-03-11T13:47:55;66930.75;;;7.76;53.12
3844;BME280;1937;51.444;6.484;2023-03-11T13:50:27;66932.59;;;7.82;50.00
3844;BME280;1937;51.444;6.484;2023-03-11T13:53:00;66990.41;;;8.17;51.06
3844;BME280;1937;51.444;6.484;2023-03-11T13:55:33;67019.09;;;8.13;51.11
3844;BME280;1937;51.444;6.484;2023-03-11T13:58:02;67031.13;;;8.30;50.68
3844;BME280;1937;51.444;6.484;2023-03-11T14:00:48;66973.53;;;8.13;51.15
3844;BME280;1937;51.444;6.484;2023-03-11T14:03:19;66995.03;;;8.21;50.53